Time;durP1;ratioP1;P1;durP2;ratioP2;P2;SDS_P1;SDS_P2;PMS_P1;PMS_P2;Temp;Humidity;BMP_temperature;BMP_pressure;BME280_temperature;BME280_humidity;BME280_pressure;Samples;Min_cycle;Max_cycle;Signal;HPM_P1;HPM_P2
2023/05/20 00:00:49;;;;;;;3.20;1.60;;;12.10;98.60;;;;;;5055844;28;20040;-75
2023/05/20 00:03:21;;;;;;;6.67;2.07;;;12.10;98.70;;;;;;5053226;28;20600;-75
2023/05/20 00:05:47;;;;;;;9.35;2.15;;;12.10;98.90;;;;;;5049924;28;20291;-74
2023/05/20 00:08:13;;;;;;;5.63;1.73;;;12.10;98.80;;;;;;5056349;28;20033;-74
2023/05/20 00:10:40;;;;;;;4.88;1.77;;;12.10;98.80;;;;;;5069962;28;20032;-75
2023/05/20 00:13:05;;;;;;;5.55;1.60;;;12.00;98.90;;;;;;5084656;28;20055;-74
2023/05/20 00:15:32;;;;;;;4.80;2.10;;;12.00;98.90;;;;;;5060959;28;20541;-74
2023/05/20 00:18:00;;;;;;;4.70;1.45;;;12.00;99.00;;;;;;5064198;28;20494;-75
2023/05/20 00:20:25;;;;;;;5.00;1.80;;;12.00;99.00;;;;;;5067671;28;20059;-74
2023/05/20 00:22:51;;;;;;;6.63;1.40;;;12.00;99.00;;;;;;5068413;28;20406;-75
2023/05/20 00:25:17;;;;;;;4.18;1.65;;;12.00;99.10;;;;;;5099459;28;20040;-75
2023/05/20 00:27:43;;;;;;;4.07;1.90;;;11.90;99.10;;;;;;5065607;28;20124;-74
2023/05/20 00:30:09;;;;;;;2.95;1.88;;;11.90;99.10;;;;;;5069122;28;20067;-74
2023/05/20 00:32:35;;;;;;;3.85;1.55;;;11.90;99.20;;;;;;5060879;28;20036;-75
2023/05/20 00:35:02;;;;;;;3.28;1.75;;;11.90;99.20;;;;;;5069513;28;20559;-74
2023/05/20 00:37:27;;;;;;;3.22;1.70;;;11.90;99.30;;;;;;5065790;28;20447;-75
2023/05/20 00:39:53;;;;;;;5.72;1.50;;;11.90;99.30;;;;;;5068376;28;20029;-74
2023/05/20 00:42:27;;;;;;;3.50;1.55;;;11.90;99.30;;;;;;5067928;28;20116;-74
2023/05/20 00:44:53;;;;;;;3.95;1.75;;;11.90;99.50;;;;;;5069567;28;20040;-74
2023/05/20 00:47:22;;;;;;;4.90;1.50;;;11.90;99.30;;;;;;5066221;28;20028;-74
2023/05/20 00:49:49;;;;;;;3.40;1.48;;;11.90;99.40;;;;;;5103674;28;20567;-74
2023/05/20 00:52:17;;;;;;;4.88;1.70;;;11.90;99.40;;;;;;5065388;28;20570;-74
2023/05/20 00:54:42;;;;;;;4.25;1.95;;;11.90;99.40;;;;;;5070965;28;20048;-74
2023/05/20 00:57:08;;;;;;;4.30;1.70;;;11.90;99.40;;;;;;5062514;28;20875;-74
2023/05/20 00:59:36;;;;;;;3.63;2.05;;;11.90;99.40;;;;;;5069437;28;20036;-74
2023/05/20 01:02:05;;;;;;;4.00;1.40;;;11.90;99.50;;;;;;5062811;28;20182;-74
2023/05/20 01:04:31;;;;;;;3.38;1.42;;;11.90;99.50;;;;;;5068945;28;20048;-74
2023/05/20 01:06:59;;;;;;;3.42;2.00;;;11.90;99.50;;;;;;5066656;28;20036;-75
2023/05/20 01:09:25;;;;;;;5.75;1.52;;;11.90;99.60;;;;;;5058839;28;20111;-74
2023/05/20 01:11:58;;;;;;;4.13;1.35;;;11.90;99.60;;;;;;5032791;28;20167;-75
2023/05/20 01:14:28;;;;;;;2.85;1.38;;;11.90;99.70;;;;;;5061986;28;20497;-74
2023/05/20 01:16:57;;;;;;;3.05;1.38;;;11.90;99.70;;;;;;5068477;28;20040;-74
2023/05/20 01:19:43;;;;;;;3.33;1.42;;;11.90;99.70;;;;;;5057414;28;20053;-75
2023/05/20 01:22:11;;;;;;;2.92;1.33;;;11.90;99.90;;;;;;5062997;28;20532;-74
2023/05/20 01:24:41;;;;;;;5.68;1.65;;;11.90;99.70;;;;;;5069301;28;20068;-74
2023/05/20 01:27:09;;;;;;;8.40;1.63;;;11.90;99.70;;;;;;5065291;28;20052;-74
2023/05/20 01:29:36;;;;;;;4.35;1.23;;;11.90;99.70;;;;;;5051262;28;20048;-74
2023/05/20 01:32:06;;;;;;;2.83;1.30;;;11.90;99.70;;;;;;5045079;28;20504;-74
2023/05/20 01:34:34;;;;;;;3.45;1.48;;;11.90;99.70;;;;;;5089965;28;20040;-74
2023/05/20 01:37:01;;;;;;;3.42;1.67;;;11.90;99.70;;;;;;5062530;28;20052;-74
2023/05/20 01:39:28;;;;;;;4.53;1.40;;;11.90;99.80;;;;;;5059224;28;20041;-74
2023/05/20 01:41:54;;;;;;;4.15;1.40;;;11.90;99.80;;;;;;5060456;28;20414;-75
2023/05/20 01:44:20;;;;;;;5.13;1.33;;;11.90;99.80;;;;;;5065409;28;20048;-74
2023/05/20 01:46:49;;;;;;;2.53;1.60;;;11.80;99.80;;;;;;5049586;28;20620;-74
2023/05/20 01:49:15;;;;;;;3.88;1.02;;;11.80;99.80;;;;;;5067763;28;20508;-75
2023/05/20 01:51:40;;;;;;;3.03;1.60;;;11.80;99.80;;;;;;5067966;28;20079;-74
2023/05/20 01:54:06;;;;;;;6.10;1.40;;;11.80;99.90;;;;;;5065954;28;20078;-74
2023/05/20 01:56:32;;;;;;;5.18;1.30;;;11.80;99.90;;;;;;5063131;28;20072;-74
2023/05/20 01:58:57;;;;;;;2.67;1.30;;;11.80;99.90;;;;;;5065559;28;20162;-74
2023/05/20 02:01:23;;;;;;;4.03;1.60;;;11.80;99.90;;;;;;5049541;28;20044;-74
2023/05/20 02:03:48;;;;;;;4.88;1.50;;;11.70;99.90;;;;;;5049496;28;20036;-74
2023/05/20 02:06:14;;;;;;;3.40;1.35;;;11.70;99.90;;;;;;5054403;28;20033;-74
2023/05/20 02:08:39;;;;;;;3.75;1.63;;;11.70;99.90;;;;;;5059864;28;20072;-74
2023/05/20 02:11:05;;;;;;;2.45;1.15;;;11.70;99.90;;;;;;5068037;28;20045;-74
2023/05/20 02:13:30;;;;;;;3.15;1.23;;;11.70;99.90;;;;;;5067811;28;20151;-74
2023/05/20 02:15:56;;;;;;;5.47;1.67;;;11.70;99.90;;;;;;5067306;28;20044;-74
2023/05/20 02:18:22;;;;;;;3.00;1.40;;;11.70;99.90;;;;;;5063244;28;20041;-74
2023/05/20 02:20:47;;;;;;;3.75;1.45;;;11.70;99.90;;;;;;5062684;28;20036;-74
2023/05/20 02:23:13;;;;;;;3.83;1.25;;;11.60;99.90;;;;;;5067779;28;20032;-74
2023/05/20 02:25:39;;;;;;;7.22;1.75;;;11.60;99.90;;;;;;5066285;28;20037;-74
2023/05/20 02:28:09;;;;;;;4.18;1.38;;;11.60;99.90;;;;;;5098921;28;20048;-74
2023/05/20 02:30:36;;;;;;;5.70;1.60;;;11.60;99.90;;;;;;5065522;28;20045;-74
2023/05/20 02:33:02;;;;;;;2.80;1.65;;;11.60;99.90;;;;;;5065859;28;20032;-74
2023/05/20 02:35:27;;;;;;;2.92;1.30;;;11.60;99.90;;;;;;5068425;28;20696;-74
2023/05/20 02:37:53;;;;;;;2.92;1.45;;;11.50;99.90;;;;;;5088097;28;20426;-74
2023/05/20 02:40:18;;;;;;;2.97;1.42;;;11.60;99.90;;;;;;5084249;28;20041;-74
2023/05/20 02:42:45;;;;;;;2.67;1.23;;;11.50;99.90;;;;;;5048350;28;20037;-75
2023/05/20 02:45:11;;;;;;;3.25;1.50;;;11.50;99.90;;;;;;5055702;28;20063;-74
2023/05/20 02:47:36;;;;;;;3.28;1.33;;;11.50;99.90;;;;;;5043831;28;20436;-74
2023/05/20 02:50:02;;;;;;;3.40;1.60;;;11.50;99.90;;;;;;5037561;28;20082;-74
2023/05/20 02:52:28;;;;;;;6.82;1.83;;;11.50;99.90;;;;;;5067627;28;20053;-74
2023/05/20 02:54:53;;;;;;;5.38;1.58;;;11.50;99.90;;;;;;5066284;28;20544;-74
2023/05/20 02:57:19;;;;;;;2.88;1.55;;;11.50;99.90;;;;;;5044083;28;20048;-74
2023/05/20 02:59:45;;;;;;;5.13;1.40;;;11.50;99.90;;;;;;5067974;28;20036;-74
2023/05/20 03:02:11;;;;;;;3.45;1.23;;;11.50;99.90;;;;;;5063205;28;20048;-74
2023/05/20 03:04:39;;;;;;;4.90;1.40;;;11.40;99.90;;;;;;5049228;28;20052;-74
2023/05/20 03:07:09;;;;;;;2.88;1.40;;;11.40;99.90;;;;;;5034740;28;20033;-74
2023/05/20 03:09:34;;;;;;;2.58;1.10;;;11.40;99.90;;;;;;5051923;28;20032;-75
2023/05/20 03:12:00;;;;;;;2.72;1.33;;;11.40;99.90;;;;;;5061189;28;20099;-75
2023/05/20 03:14:26;;;;;;;2.75;1.13;;;11.40;99.90;;;;;;5048216;28;20037;-74
2023/05/20 03:16:54;;;;;;;3.47;1.30;;;11.50;99.90;;;;;;5055789;28;20111;-74
2023/05/20 03:19:20;;;;;;;3.30;1.30;;;11.40;99.90;;;;;;5065569;28;20540;-74
2023/05/20 03:21:46;;;;;;;3.20;1.33;;;11.40;99.90;;;;;;5062472;28;20037;-74
2023/05/20 03:24:11;;;;;;;2.75;1.50;;;11.40;99.90;;;;;;5067258;28;20048;-74
2023/05/20 03:26:41;;;;;;;6.40;1.70;;;11.40;99.90;;;;;;5062625;28;20048;-74
2023/05/20 03:29:08;;;;;;;4.03;1.25;;;11.40;99.90;;;;;;5042209;28;20048;-74
2023/05/20 03:31:34;;;;;;;2.40;1.33;;;11.30;99.90;;;;;;5067000;28;20048;-74
2023/05/20 03:33:59;;;;;;;3.58;1.45;;;11.30;99.90;;;;;;5064987;28;20036;-74
2023/05/20 03:36:25;;;;;;;3.25;1.30;;;11.30;99.90;;;;;;5069558;28;20028;-74
2023/05/20 03:38:51;;;;;;;2.60;1.20;;;11.30;99.90;;;;;;5064379;28;20545;-74
2023/05/20 03:41:16;;;;;;;3.85;1.08;;;11.30;99.90;;;;;;5063754;28;20037;-74
2023/05/20 03:43:42;;;;;;;3.00;1.30;;;11.30;99.90;;;;;;5062310;28;20413;-74
2023/05/20 03:46:07;;;;;;;4.85;1.75;;;11.30;99.90;;;;;;5063139;28;20059;-74
2023/05/20 03:48:33;;;;;;;2.58;1.20;;;11.30;99.90;;;;;;5066847;28;20736;-74
2023/05/20 03:50:58;;;;;;;4.28;1.30;;;11.30;99.90;;;;;;5054085;28;20063;-74
2023/05/20 03:53:24;;;;;;;2.83;1.00;;;11.30;99.90;;;;;;5069628;28;20387;-74
2023/05/20 03:55:49;;;;;;;2.92;0.98;;;11.30;99.90;;;;;;5068670;28;20511;-74
2023/05/20 03:58:15;;;;;;;2.53;1.10;;;11.30;99.90;;;;;;5069079;28;20041;-74
2023/05/20 04:00:41;;;;;;;4.95;0.98;;;11.30;99.90;;;;;;5067398;28;20536;-74
2023/05/20 04:03:07;;;;;;;3.10;1.27;;;11.20;99.90;;;;;;5066510;28;20059;-74
2023/05/20 04:05:35;;;;;;;2.42;1.00;;;11.30;99.90;;;;;;5088994;28;20037;-74
2023/05/20 04:08:00;;;;;;;3.63;1.20;;;11.20;99.90;;;;;;5057632;28;20491;-74
2023/05/20 04:10:26;;;;;;;3.08;0.98;;;11.20;99.90;;;;;;5066766;28;20129;-74
2023/05/20 04:12:52;;;;;;;2.63;1.17;;;11.30;99.90;;;;;;5069557;28;20039;-74
2023/05/20 04:15:18;;;;;;;5.07;1.27;;;11.30;99.90;;;;;;5051630;28;20043;-74
2023/05/20 04:17:47;;;;;;;3.63;1.25;;;11.30;99.90;;;;;;5055780;28;20036;-74
2023/05/20 04:20:13;;;;;;;3.25;1.17;;;11.30;99.90;;;;;;5062614;28;20118;-74
2023/05/20 04:22:38;;;;;;;3.72;1.05;;;11.30;99.90;;;;;;5056963;28;20040;-74
2023/05/20 04:25:05;;;;;;;4.30;1.20;;;11.30;99.90;;;;;;5068549;28;20037;-74
2023/05/20 04:27:32;;;;;;;4.13;1.02;;;11.40;99.90;;;;;;5067425;28;20490;-74
2023/05/20 04:29:58;;;;;;;1.90;0.80;;;11.40;99.90;;;;;;5101453;28;20055;-74
2023/05/20 04:32:23;;;;;;;2.30;1.00;;;11.40;99.90;;;;;;5070290;28;20040;-74
2023/05/20 04:34:49;;;;;;;3.88;1.13;;;11.50;99.90;;;;;;5066616;28;20060;-74
2023/05/20 04:37:15;;;;;;;2.45;1.17;;;11.50;99.90;;;;;;5068909;28;20052;-74
2023/05/20 04:39:42;;;;;;;2.35;1.13;;;11.50;99.90;;;;;;5068780;28;20061;-74
2023/05/20 04:42:08;;;;;;;3.15;1.08;;;11.60;99.90;;;;;;5064316;28;20041;-74
2023/05/20 04:44:33;;;;;;;1.95;0.70;;;11.60;99.90;;;;;;5058429;28;20059;-74
2023/05/20 04:46:59;;;;;;;2.65;1.05;;;11.70;99.90;;;;;;5098873;28;20066;-74
2023/05/20 04:49:25;;;;;;;3.58;1.00;;;11.70;99.90;;;;;;5070573;28;20080;-74
2023/05/20 04:51:51;;;;;;;2.97;1.20;;;11.70;99.90;;;;;;5068865;28;20040;-74
2023/05/20 04:54:19;;;;;;;3.03;1.10;;;11.70;99.90;;;;;;5102790;28;20597;-74
2023/05/20 04:56:45;;;;;;;1.67;0.80;;;11.80;99.90;;;;;;5036413;28;20516;-74
2023/05/20 04:59:11;;;;;;;2.78;1.10;;;11.80;99.90;;;;;;5068548;28;20043;-74
2023/05/20 05:01:37;;;;;;;1.58;0.80;;;11.70;99.90;;;;;;5069110;28;20041;-74
2023/05/20 05:04:02;;;;;;;2.97;0.88;;;11.70;99.90;;;;;;5065148;28;20046;-75
2023/05/20 05:06:28;;;;;;;2.95;1.10;;;11.70;99.90;;;;;;5074059;28;20069;-74
2023/05/20 05:08:54;;;;;;;2.47;1.08;;;11.70;99.90;;;;;;5066925;28;20056;-74
2023/05/20 05:11:20;;;;;;;2.67;0.75;;;11.70;99.90;;;;;;5064117;28;20040;-74
2023/05/20 05:13:45;;;;;;;1.65;0.80;;;11.70;99.90;;;;;;5048769;28;20041;-74
2023/05/20 05:16:11;;;;;;;1.30;0.90;;;11.60;99.90;;;;;;5051474;28;20041;-74
2023/05/20 05:18:37;;;;;;;5.70;1.02;;;11.60;99.90;;;;;;5048443;28;20140;-74
2023/05/20 05:21:03;;;;;;;2.08;0.90;;;11.60;99.90;;;;;;5064534;28;20116;-74
2023/05/20 05:23:29;;;;;;;3.45;1.13;;;11.70;99.90;;;;;;5065937;28;20037;-74
2023/05/20 05:25:56;;;;;;;1.55;0.88;;;11.60;99.90;;;;;;5059244;28;20063;-74
2023/05/20 05:28:22;;;;;;;3.38;0.70;;;11.70;99.90;;;;;;5063428;28;20051;-75
2023/05/20 05:30:47;;;;;;;1.00;0.50;;;11.70;99.90;;;;;;5050327;28;20045;-74
2023/05/20 05:33:14;;;;;;;1.52;0.73;;;11.80;99.80;;;;;;5067100;28;20055;-74
2023/05/20 05:35:41;;;;;;;1.70;0.70;;;11.80;99.60;;;;;;5060560;28;20521;-74
2023/05/20 05:38:07;;;;;;;2.17;0.95;;;11.90;99.50;;;;;;5066912;28;20044;-74
2023/05/20 05:40:33;;;;;;;4.00;1.20;;;11.90;99.50;;;;;;5067011;28;20555;-74
2023/05/20 05:42:58;;;;;;;1.40;0.68;;;11.90;99.30;;;;;;5066787;28;20029;-74
2023/05/20 05:45:24;;;;;;;1.48;0.80;;;11.90;99.40;;;;;;5059458;28;20037;-74
2023/05/20 05:47:50;;;;;;;1.88;0.73;;;11.90;99.20;;;;;;5058282;28;20037;-74
2023/05/20 05:50:15;;;;;;;4.25;0.88;;;12.00;99.20;;;;;;5063393;28;20040;-74
2023/05/20 05:52:41;;;;;;;2.05;0.70;;;12.00;99.40;;;;;;5056860;28;20052;-74
2023/05/20 05:55:08;;;;;;;1.83;0.60;;;12.00;98.80;;;;;;5043816;28;20040;-74
2023/05/20 05:57:34;;;;;;;4.15;0.80;;;12.10;98.90;;;;;;5065941;28;20037;-74
2023/05/20 05:59:59;;;;;;;1.30;0.60;;;12.10;98.80;;;;;;5068230;28;20410;-74
2023/05/20 06:02:25;;;;;;;2.42;0.70;;;12.10;98.60;;;;;;5063133;28;20039;-74
2023/05/20 06:04:51;;;;;;;2.67;0.73;;;12.20;98.50;;;;;;5057142;28;20064;-74
2023/05/20 06:07:17;;;;;;;2.97;1.13;;;12.20;98.40;;;;;;5063053;28;20047;-74
2023/05/20 06:09:43;;;;;;;2.63;0.93;;;12.30;98.30;;;;;;5065614;28;20089;-74
2023/05/20 06:12:09;;;;;;;1.40;0.50;;;12.30;98.20;;;;;;5061992;28;20056;-74
2023/05/20 06:14:34;;;;;;;1.02;0.52;;;12.30;98.00;;;;;;5095971;28;20093;-74
2023/05/20 06:17:01;;;;;;;1.98;0.88;;;12.30;97.90;;;;;;5064232;28;20033;-74
2023/05/20 06:19:27;;;;;;;2.35;0.88;;;12.30;97.90;;;;;;5067084;28;20044;-74
2023/05/20 06:21:52;;;;;;;1.20;0.50;;;12.40;97.90;;;;;;5066899;28;20390;-74
2023/05/20 06:24:18;;;;;;;3.10;0.70;;;12.40;97.80;;;;;;5078838;28;20037;-74
2023/05/20 06:26:44;;;;;;;1.33;0.80;;;12.60;97.90;;;;;;5060923;28;20052;-74
2023/05/20 06:29:10;;;;;;;2.30;0.70;;;13.30;97.20;;;;;;5045345;28;20411;-75
2023/05/20 06:31:36;;;;;;;1.17;0.60;;;14.50;96.00;;;;;;5058719;28;20043;-75
2023/05/20 06:34:02;;;;;;;2.00;0.60;;;15.70;94.00;;;;;;5055914;28;20032;-75
2023/05/20 06:36:27;;;;;;;1.63;0.65;;;16.80;91.70;;;;;;5054117;28;20677;-75
2023/05/20 06:38:53;;;;;;;1.70;0.65;;;17.50;88.60;;;;;;5059471;28;20047;-75
2023/05/20 06:41:20;;;;;;;2.33;0.70;;;18.10;86.40;;;;;;5056643;28;20268;-75
2023/05/20 06:43:46;;;;;;;2.20;0.70;;;18.70;83.10;;;;;;5059786;28;20075;-75
2023/05/20 06:46:11;;;;;;;3.42;0.85;;;19.10;78.50;;;;;;5049872;28;20527;-75
2023/05/20 06:48:37;;;;;;;2.08;0.68;;;18.90;77.60;;;;;;5088146;28;20048;-75
2023/05/20 06:51:06;;;;;;;3.63;0.60;;;18.30;82.80;;;;;;5061866;28;20045;-74
2023/05/20 06:53:31;;;;;;;1.60;0.70;;;17.70;86.80;;;;;;5061092;28;20424;-74
2023/05/20 06:55:57;;;;;;;1.67;0.80;;;17.20;88.50;;;;;;5062190;28;20043;-75
2023/05/20 06:58:23;;;;;;;1.25;0.50;;;16.70;90.00;;;;;;5059777;28;20044;-74
2023/05/20 07:00:48;;;;;;;0.90;0.40;;;16.30;91.10;;;;;;5051791;28;20037;-74
2023/05/20 07:03:14;;;;;;;2.13;0.68;;;15.90;91.60;;;;;;5068049;28;20036;-74
2023/05/20 07:05:39;;;;;;;2.05;0.52;;;15.60;92.20;;;;;;5044410;28;20376;-74
2023/05/20 07:08:05;;;;;;;1.60;0.70;;;15.30;92.30;;;;;;5069722;28;20036;-74
2023/05/20 07:10:30;;;;;;;2.22;0.75;;;15.10;92.30;;;;;;5071378;28;20036;-74
2023/05/20 07:12:56;;;;;;;2.67;0.63;;;14.90;92.40;;;;;;5071300;28;20525;-74
2023/05/20 07:15:22;;;;;;;2.25;0.95;;;14.70;92.20;;;;;;5067550;28;20472;-74
2023/05/20 07:17:47;;;;;;;6.47;1.10;;;14.50;92.40;;;;;;5068903;28;20036;-74
2023/05/20 07:20:13;;;;;;;1.30;0.60;;;14.40;92.50;;;;;;5067819;28;20033;-74
2023/05/20 07:22:38;;;;;;;3.15;0.70;;;14.30;92.60;;;;;;5064846;28;20037;-75
2023/05/20 07:25:04;;;;;;;1.80;0.82;;;14.30;92.70;;;;;;5055256;28;20033;-75
2023/05/20 07:27:30;;;;;;;2.33;0.73;;;14.20;92.50;;;;;;5058709;28;20642;-75
2023/05/20 07:29:55;;;;;;;2.25;0.52;;;14.20;92.20;;;;;;5058199;28;20810;-75
2023/05/20 07:32:21;;;;;;;2.33;1.08;;;14.10;92.30;;;;;;5056946;28;20043;-74
2023/05/20 07:34:46;;;;;;;1.98;0.77;;;14.10;92.20;;;;;;5058805;28;20625;-76
2023/05/20 07:37:12;;;;;;;1.85;1.05;;;14.00;92.20;;;;;;5055934;28;20033;-74
2023/05/20 07:39:37;;;;;;;1.83;0.90;;;14.00;92.50;;;;;;5064189;28;20513;-75
2023/05/20 07:42:03;;;;;;;2.78;0.88;;;14.10;92.50;;;;;;5068133;28;20033;-74
2023/05/20 07:44:29;;;;;;;2.15;0.80;;;14.10;92.30;;;;;;5069773;28;20124;-74
2023/05/20 07:46:55;;;;;;;2.28;1.00;;;14.10;92.20;;;;;;5063316;28;20054;-75
2023/05/20 07:49:21;;;;;;;1.80;0.77;;;14.10;92.10;;;;;;5064705;28;20040;-75
2023/05/20 07:51:46;;;;;;;1.50;0.68;;;14.10;92.10;;;;;;5056453;28;20040;-75
2023/05/20 07:54:12;;;;;;;1.73;0.65;;;14.10;92.10;;;;;;5061565;28;20067;-75
2023/05/20 07:56:37;;;;;;;3.28;1.50;;;14.20;92.30;;;;;;5065212;28;20063;-74
2023/05/20 07:59:03;;;;;;;3.03;1.00;;;14.20;92.30;;;;;;5067172;28;20044;-75
2023/05/20 08:01:29;;;;;;;2.53;1.20;;;14.20;92.40;;;;;;5062307;28;20626;-74
2023/05/20 08:03:55;;;;;;;4.03;1.00;;;14.30;92.10;;;;;;5056775;28;20033;-75
2023/05/20 08:06:20;;;;;;;2.58;1.02;;;14.30;92.20;;;;;;5060069;28;20558;-75
2023/05/20 08:08:46;;;;;;;2.70;0.90;;;14.30;92.20;;;;;;5067475;28;20040;-75
2023/05/20 08:11:12;;;;;;;2.75;1.20;;;14.40;92.80;;;;;;5065167;28;20032;-75
2023/05/20 08:13:38;;;;;;;3.83;0.90;;;14.40;92.20;;;;;;5061943;28;20090;-75
2023/05/20 08:16:07;;;;;;;1.65;0.85;;;14.50;92.20;;;;;;5064941;28;20036;-76
2023/05/20 08:18:36;;;;;;;2.80;1.10;;;14.50;92.40;;;;;;5063229;28;20032;-75
2023/05/20 08:21:02;;;;;;;1.80;0.73;;;14.50;92.30;;;;;;5062161;28;20656;-75
2023/05/20 08:23:27;;;;;;;2.15;0.80;;;14.60;92.30;;;;;;5061325;28;20309;-76
2023/05/20 08:25:53;;;;;;;2.83;1.10;;;14.60;92.30;;;;;;5063545;28;20093;-76
2023/05/20 08:28:20;;;;;;;2.47;1.02;;;14.60;92.30;;;;;;5062644;28;20136;-76
2023/05/20 08:30:47;;;;;;;1.70;0.95;;;14.60;92.40;;;;;;5064655;28;20044;-75
2023/05/20 08:33:13;;;;;;;3.42;1.20;;;14.70;92.60;;;;;;5058491;28;20440;-76
2023/05/20 08:35:39;;;;;;;1.80;0.80;;;14.70;92.40;;;;;;5063119;28;20044;-77
2023/05/20 08:38:05;;;;;;;2.00;0.90;;;14.80;92.30;;;;;;5062730;28;20028;-77
2023/05/20 08:40:34;;;;;;;4.00;1.30;;;14.80;92.50;;;;;;5062535;28;20790;-73
2023/05/20 08:43:00;;;;;;;2.28;0.85;;;14.80;92.50;;;;;;5055460;28;20128;-77
2023/05/20 08:45:27;;;;;;;2.10;1.00;;;14.90;92.60;;;;;;5065903;28;20029;-77
2023/05/20 08:47:53;;;;;;;1.63;0.80;;;15.00;92.60;;;;;;5055499;28;20127;-77
2023/05/20 08:50:19;;;;;;;2.50;0.93;;;15.00;92.40;;;;;;5054449;28;20041;-76
2023/05/20 08:52:46;;;;;;;2.88;1.20;;;15.00;92.70;;;;;;5056492;28;20036;-77
2023/05/20 08:55:25;;;;;;;3.10;1.27;;;15.10;92.60;;;;;;5057176;28;20551;-77
2023/05/20 08:57:53;;;;;;;1.92;0.90;;;15.20;92.50;;;;;;5057593;28;20036;-77
2023/05/20 09:00:20;;;;;;;2.00;1.00;;;15.10;92.20;;;;;;5040524;28;20029;-77
2023/05/20 09:02:46;;;;;;;2.75;1.38;;;15.20;92.50;;;;;;5052569;28;20049;-76
2023/05/20 09:05:12;;;;;;;1.58;0.90;;;15.20;92.20;;;;;;5084682;28;20050;-77
2023/05/20 09:07:38;;;;;;;3.22;1.02;;;15.30;92.30;;;;;;5062726;28;20037;-77
2023/05/20 09:10:05;;;;;;;3.95;1.15;;;15.20;92.10;;;;;;5061875;28;20036;-77
2023/05/20 09:12:30;;;;;;;1.77;0.90;;;15.30;92.20;;;;;;5092291;28;20056;-77
2023/05/20 09:14:56;;;;;;;2.05;1.13;;;15.30;92.00;;;;;;5042468;28;20509;-77
2023/05/20 09:17:22;;;;;;;2.25;1.00;;;15.40;92.20;;;;;;5053400;28;20840;-77
2023/05/20 09:19:52;;;;;;;2.47;0.95;;;15.40;92.10;;;;;;5052838;28;20123;-77
2023/05/20 09:22:26;;;;;;;2.45;1.15;;;15.50;92.40;;;;;;5051872;28;20029;-77
2023/05/20 09:24:52;;;;;;;3.45;0.95;;;15.60;92.00;;;;;;5048395;28;20102;-78
2023/05/20 09:27:19;;;;;;;2.95;1.33;;;15.60;92.10;;;;;;5052103;28;20052;-77
2023/05/20 09:29:48;;;;;;;2.83;1.27;;;15.60;91.90;;;;;;5052058;28;20054;-77
2023/05/20 09:32:15;;;;;;;3.30;1.20;;;15.70;91.70;;;;;;5052864;28;20490;-78
2023/05/20 09:34:41;;;;;;;2.20;0.85;;;15.70;91.10;;;;;;5065040;28;20485;-78
2023/05/20 09:37:08;;;;;;;2.40;1.08;;;15.80;90.90;;;;;;5048144;28;20051;-78
2023/05/20 09:39:56;;;;;;;2.53;0.90;;;15.80;90.40;;;;;;5055236;28;20064;-78
2023/05/20 09:42:32;;;;;;;2.03;0.88;;;15.80;90.10;;;;;;5067581;28;20058;-78
2023/05/20 09:44:59;;;;;;;2.55;0.80;;;15.90;89.70;;;;;;5054131;28;20039;-78
2023/05/20 09:47:25;;;;;;;2.95;0.90;;;15.90;89.40;;;;;;5056754;28;20036;-77
2023/05/20 09:49:52;;;;;;;3.42;0.90;;;15.90;88.80;;;;;;5054153;28;21443;-78
2023/05/20 09:52:18;;;;;;;1.23;0.70;;;15.90;87.90;;;;;;5039385;28;20049;-77
2023/05/20 09:54:44;;;;;;;3.50;0.93;;;16.00;86.30;;;;;;5054843;28;21463;-78
2023/05/20 09:57:11;;;;;;;5.10;1.20;;;16.00;85.30;;;;;;5037670;28;20036;-78
2023/05/20 09:59:37;;;;;;;2.13;0.80;;;16.00;84.80;;;;;;5054445;28;20114;-78
2023/05/20 10:02:05;;;;;;;2.95;1.00;;;16.10;87.90;;;;;;5051181;28;20044;-77
2023/05/20 10:04:33;;;;;;;2.20;1.00;;;16.10;85.80;;;;;;5056755;28;20116;-78
2023/05/20 10:07:25;;;;;;;4.60;0.93;;;16.20;85.00;;;;;;5053895;28;20116;-77
2023/05/20 10:10:25;;;;;;;2.30;0.93;;;16.30;84.70;;;;;;5060190;28;20037;-78
2023/05/20 10:13:10;;;;;;;2.63;0.80;;;16.30;81.10;;;;;;5054169;28;20052;-78
2023/05/20 10:15:58;;;;;;;2.47;0.93;;;16.30;84.40;;;;;;5090351;28;20045;-78
2023/05/20 10:18:43;;;;;;;2.92;0.80;;;16.30;81.70;;;;;;5044276;28;20124;-78
2023/05/20 10:21:23;;;;;;;1.50;0.70;;;16.30;80.50;;;;;;5051741;28;20083;-78
2023/05/20 10:23:51;;;;;;;1.70;0.75;;;16.30;82.80;;;;;;5055372;28;20057;-78
2023/05/20 10:26:18;;;;;;;1.90;0.80;;;16.40;83.50;;;;;;5085328;28;21370;-77
2023/05/20 10:28:45;;;;;;;2.70;0.77;;;16.50;82.20;;;;;;5050205;28;20417;-78
2023/05/20 10:31:20;;;;;;;4.05;1.02;;;16.60;82.30;;;;;;5051274;28;20105;-78
2023/05/20 10:33:47;;;;;;;5.05;0.93;;;16.60;80.60;;;;;;5083998;28;20072;-78
2023/05/20 10:36:26;;;;;;;2.13;0.98;;;16.70;80.50;;;;;;5049755;28;20040;-78
2023/05/20 10:38:56;;;;;;;1.63;0.70;;;16.70;77.40;;;;;;5085398;28;20085;-77
2023/05/20 10:41:26;;;;;;;1.27;0.75;;;16.80;80.40;;;;;;5049197;28;20040;-78
2023/05/20 10:44:05;;;;;;;3.28;0.93;;;16.80;80.80;;;;;;5052814;28;20040;-78
2023/05/20 10:46:32;;;;;;;2.30;0.80;;;16.90;79.70;;;;;;5055524;28;20098;-78
2023/05/20 10:48:58;;;;;;;3.08;1.08;;;17.00;80.50;;;;;;5055398;28;20082;-78
2023/05/20 10:51:27;;;;;;;1.63;0.75;;;17.00;80.00;;;;;;5053855;28;20047;-78
2023/05/20 10:53:54;;;;;;;1.27;0.77;;;17.10;79.20;;;;;;5059414;28;20272;-78
2023/05/20 10:56:22;;;;;;;4.30;1.83;;;17.00;78.50;;;;;;5039049;28;20048;-78
2023/05/20 10:58:48;;;;;;;1.83;0.82;;;17.00;77.60;;;;;;5037333;28;20044;-78
2023/05/20 11:01:15;;;;;;;1.55;0.70;;;17.00;77.80;;;;;;5059415;28;20236;-77
2023/05/20 11:03:42;;;;;;;2.15;1.15;;;17.00;76.30;;;;;;5056661;28;20035;-77
2023/05/20 11:06:16;;;;;;;1.05;0.60;;;17.00;75.20;;;;;;5060779;28;20041;-77
2023/05/20 11:08:43;;;;;;;1.55;0.60;;;16.90;74.10;;;;;;5056598;28;21018;-78
2023/05/20 11:11:10;;;;;;;2.75;1.00;;;16.90;76.20;;;;;;5090582;28;20509;-78
2023/05/20 11:13:36;;;;;;;1.50;0.70;;;16.90;76.30;;;;;;5063786;28;20039;-78
2023/05/20 11:16:03;;;;;;;1.90;0.63;;;16.90;75.70;;;;;;5060653;28;20402;-78
2023/05/20 11:18:29;;;;;;;2.03;1.25;;;16.90;75.30;;;;;;5054704;28;20083;-78
2023/05/20 11:20:58;;;;;;;1.70;0.85;;;16.90;75.00;;;;;;5058456;28;20041;-78
2023/05/20 11:23:28;;;;;;;1.85;0.82;;;17.00;74.70;;;;;;5062572;28;20032;-78
2023/05/20 11:25:55;;;;;;;2.05;0.80;;;17.00;73.90;;;;;;5062932;28;20246;-77
2023/05/20 11:28:22;;;;;;;2.03;0.90;;;17.10;73.70;;;;;;5058953;28;21333;-78
2023/05/20 11:30:49;;;;;;;2.65;0.73;;;17.10;72.20;;;;;;5042790;28;20036;-77
2023/05/20 11:33:16;;;;;;;1.48;0.77;;;17.00;70.70;;;;;;5052352;28;20131;-77
2023/05/20 11:35:50;;;;;;;2.00;0.90;;;16.90;72.80;;;;;;5059732;28;20046;-77
2023/05/20 11:38:16;;;;;;;1.85;0.65;;;16.90;73.00;;;;;;5061762;28;20099;-77
2023/05/20 11:40:51;;;;;;;1.90;0.73;;;17.00;72.80;;;;;;5058465;28;20379;-78
2023/05/20 11:43:17;;;;;;;1.88;0.82;;;17.00;73.10;;;;;;5066361;28;20119;-78
2023/05/20 11:45:51;;;;;;;2.88;1.13;;;17.10;73.30;;;;;;5061482;28;20124;-78
2023/05/20 11:48:18;;;;;;;3.38;0.65;;;17.10;72.40;;;;;;5056077;28;20453;-78
2023/05/20 11:50:45;;;;;;;1.73;0.80;;;17.20;72.80;;;;;;5062094;28;20048;-78
2023/05/20 11:53:15;;;;;;;1.05;0.45;;;17.20;72.50;;;;;;5059499;28;20060;-78
2023/05/20 11:55:49;;;;;;;2.83;1.00;;;17.20;71.60;;;;;;5057244;28;20413;-78
2023/05/20 11:58:20;;;;;;;2.30;0.90;;;17.30;72.00;;;;;;5057626;28;20037;-78
2023/05/20 12:00:45;;;;;;;2.40;0.73;;;17.20;71.70;;;;;;5071029;28;20124;-78
2023/05/20 12:03:11;;;;;;;2.33;1.10;;;17.20;71.30;;;;;;5056629;28;20557;-78
2023/05/20 12:05:38;;;;;;;1.73;0.88;;;17.20;70.40;;;;;;5058565;28;20032;-78
2023/05/20 12:08:04;;;;;;;3.03;0.75;;;17.20;69.40;;;;;;5055074;28;20060;-78
2023/05/20 12:10:30;;;;;;;1.50;0.70;;;17.20;69.80;;;;;;5034633;28;20161;-78
2023/05/20 12:12:56;;;;;;;4.68;0.77;;;17.30;69.80;;;;;;5058477;28;20178;-78
2023/05/20 12:15:21;;;;;;;1.67;0.80;;;17.30;69.10;;;;;;5054978;28;20044;-78
2023/05/20 12:17:52;;;;;;;1.83;0.75;;;17.30;69.50;;;;;;5050798;28;20055;-78
2023/05/20 12:20:21;;;;;;;1.35;0.65;;;17.40;70.10;;;;;;5055482;28;20051;-78
2023/05/20 12:22:47;;;;;;;2.33;0.63;;;17.40;70.70;;;;;;5059006;28;20047;-78
2023/05/20 12:25:15;;;;;;;3.20;0.80;;;17.50;70.00;;;;;;5059482;28;20187;-78
2023/05/20 12:27:42;;;;;;;1.85;0.80;;;17.60;69.60;;;;;;5057090;28;20072;-77
2023/05/20 12:30:08;;;;;;;2.20;0.90;;;17.70;69.00;;;;;;5060822;28;20079;-77
2023/05/20 12:32:37;;;;;;;1.38;0.60;;;17.70;68.10;;;;;;5057515;28;20036;-77
2023/05/20 12:35:04;;;;;;;2.72;0.80;;;17.80;66.70;;;;;;5090685;28;20032;-77
2023/05/20 12:37:29;;;;;;;3.33;0.60;;;17.90;66.80;;;;;;5060654;28;20044;-77
2023/05/20 12:39:55;;;;;;;2.50;0.90;;;17.90;67.00;;;;;;5056727;28;20037;-77
2023/05/20 12:42:21;;;;;;;1.83;0.75;;;18.00;66.10;;;;;;5085716;28;20040;-77
2023/05/20 12:44:46;;;;;;;1.67;0.80;;;18.00;65.00;;;;;;5087520;28;20036;-77
2023/05/20 12:47:12;;;;;;;1.83;0.80;;;17.90;64.90;;;;;;5059574;28;20048;-77